GLO256 SBSP-SBRJ
Flight info
| Callsign | GLO256 |
|---|---|
| Flight time | 0h 37m |
| Altitude | 29000 |
| Route | BAIAN3B NIBRU UZ171 KEVUN ASALU1A |
| Aircraft | B737/M-SDE2E3FGHIRWXY/LB1 |
Departure
| Time | 2026-05-08 00:08 |
|---|---|
| Airport | Congonhas–Deputado Freitas Nobre Airport (SBSP) |
Arrival
| Time | 2026-05-08 00:46 |
|---|---|
| Airport | Santos Dumont Airport (SBRJ) |
| Time | Latitude | Longitude | Altitude | Speed | Heading |
|---|---|---|---|---|---|
| 2026-05-07 23:48 | -23.62719 | -46.65823 | 2600 ft | 0 kts | 237° |
| 2026-05-07 23:53 | -23.62707 | -46.65806 | 2600 ft | 4 kts | 219° |
| 2026-05-07 23:53 | -23.62685 | -46.65795 | 2600 ft | 4 kts | 171° |
| 2026-05-07 23:54 | -23.62672 | -46.65799 | 2600 ft | 0 kts | 148° |
| 2026-05-07 23:56 | -23.62673 | -46.65798 | 2600 ft | 0 kts | 147° |
| 2026-05-07 23:57 | -23.62684 | -46.65791 | 2600 ft | 5 kts | 147° |
| 2026-05-07 23:57 | -23.62745 | -46.65748 | 2600 ft | 15 kts | 147° |
| 2026-05-07 23:57 | -23.62832 | -46.65688 | 2600 ft | 15 kts | 149° |
| 2026-05-07 23:57 | -23.62892 | -46.65604 | 2602 ft | 14 kts | 132° |
| 2026-05-07 23:58 | -23.62969 | -46.65544 | 2602 ft | 13 kts | 148° |
| 2026-05-07 23:58 | -23.63056 | -46.65516 | 2601 ft | 13 kts | 166° |
| 2026-05-07 23:58 | -23.63133 | -46.65469 | 2601 ft | 13 kts | 147° |
| 2026-05-07 23:58 | -23.63205 | -46.65419 | 2601 ft | 12 kts | 148° |
| 2026-05-07 23:59 | -23.63276 | -46.65369 | 2601 ft | 13 kts | 147° |
| 2026-05-07 23:59 | -23.63355 | -46.65314 | 2601 ft | 14 kts | 147° |
| 2026-05-07 23:59 | -23.63442 | -46.65253 | 2600 ft | 16 kts | 147° |
| 2026-05-07 23:59 | -23.63504 | -46.65173 | 2599 ft | 9 kts | 73° |
| 2026-05-08 00:00 | -23.63502 | -46.65169 | 2599 ft | 0 kts | 64° |
| 2026-05-08 00:00 | -23.63502 | -46.65168 | 2599 ft | 1 kts | 63° |
| 2026-05-08 00:01 | -23.63486 | -46.65150 | 2601 ft | 6 kts | 37° |
| 2026-05-08 00:01 | -23.63444 | -46.65122 | 2599 ft | 8 kts | 23° |
| 2026-05-08 00:01 | -23.63407 | -46.65133 | 2602 ft | 0 kts | 328° |
| 2026-05-08 00:03 | -23.63397 | -46.65141 | 2602 ft | 4 kts | 327° |
| 2026-05-08 00:03 | -23.63379 | -46.65153 | 2604 ft | 0 kts | 327° |
| 2026-05-08 00:04 | -23.63373 | -46.65157 | 2604 ft | 4 kts | 328° |
| 2026-05-08 00:04 | -23.63363 | -46.65165 | 2605 ft | 0 kts | 327° |
| 2026-05-08 00:07 | -23.63350 | -46.65174 | 2606 ft | 16 kts | 327° |
| 2026-05-08 00:07 | -23.63020 | -46.65401 | 2609 ft | 96 kts | 328° |
| 2026-05-08 00:08 | -23.62250 | -46.65935 | 2644 ft | 158 kts | 328° |
| 2026-05-08 00:08 | -23.61330 | -46.66598 | 3500 ft | 152 kts | 328° |
| 2026-05-08 00:08 | -23.60395 | -46.67123 | 4313 ft | 156 kts | 359° |
| 2026-05-08 00:08 | -23.59341 | -46.66705 | 4842 ft | 181 kts | 45° |
| 2026-05-08 00:09 | -23.58797 | -46.65343 | 5155 ft | 218 kts | 86° |
| 2026-05-08 00:09 | -23.59085 | -46.63626 | 5545 ft | 242 kts | 107° |
| 2026-05-08 00:09 | -23.59618 | -46.61855 | 5507 ft | 247 kts | 107° |
| 2026-05-08 00:09 | -23.60155 | -46.60005 | 5657 ft | 270 kts | 105° |
| 2026-05-08 00:10 | -23.60707 | -46.57951 | 6345 ft | 285 kts | 103° |
| 2026-05-08 00:10 | -23.61343 | -46.55878 | 7322 ft | 294 kts | 117° |
| 2026-05-08 00:10 | -23.62640 | -46.54131 | 8343 ft | 300 kts | 133° |
| 2026-05-08 00:10 | -23.64157 | -46.52544 | 9306 ft | 305 kts | 135° |
| 2026-05-08 00:11 | -23.65717 | -46.50941 | 10239 ft | 310 kts | 135° |
| 2026-05-08 00:11 | -23.67285 | -46.49311 | 11260 ft | 312 kts | 134° |
| 2026-05-08 00:11 | -23.68872 | -46.47639 | 12043 ft | 324 kts | 133° |
| 2026-05-08 00:11 | -23.70365 | -46.45761 | 12759 ft | 331 kts | 117° |
| 2026-05-08 00:12 | -23.71085 | -46.43393 | 13637 ft | 330 kts | 94° |
| 2026-05-08 00:12 | -23.71002 | -46.40926 | 14526 ft | 331 kts | 80° |
| 2026-05-08 00:12 | -23.70655 | -46.38430 | 15422 ft | 335 kts | 78° |
| 2026-05-08 00:12 | -23.70260 | -46.35906 | 16303 ft | 339 kts | 78° |
| 2026-05-08 00:13 | -23.69859 | -46.33350 | 17152 ft | 344 kts | 79° |
| 2026-05-08 00:13 | -23.69462 | -46.30748 | 17943 ft | 350 kts | 79° |
| 2026-05-08 00:13 | -23.69071 | -46.28112 | 18756 ft | 354 kts | 79° |
| 2026-05-08 00:13 | -23.68682 | -46.25429 | 19463 ft | 362 kts | 79° |
| 2026-05-08 00:14 | -23.68289 | -46.22685 | 20107 ft | 370 kts | 80° |
| 2026-05-08 00:14 | -23.67890 | -46.19883 | 20777 ft | 377 kts | 80° |
| 2026-05-08 00:14 | -23.67483 | -46.17033 | 21448 ft | 384 kts | 80° |
| 2026-05-08 00:14 | -23.67067 | -46.14134 | 22080 ft | 391 kts | 80° |
| 2026-05-08 00:15 | -23.66641 | -46.11178 | 22715 ft | 397 kts | 80° |
| 2026-05-08 00:15 | -23.66207 | -46.08176 | 23316 ft | 403 kts | 80° |
| 2026-05-08 00:15 | -23.65767 | -46.05137 | 23904 ft | 409 kts | 81° |
| 2026-05-08 00:15 | -23.65323 | -46.02052 | 24496 ft | 414 kts | 81° |
| 2026-05-08 00:16 | -23.64874 | -45.98935 | 25108 ft | 419 kts | 81° |
| 2026-05-08 00:16 | -23.64419 | -45.95776 | 25733 ft | 423 kts | 81° |
| 2026-05-08 00:16 | -23.63960 | -45.92599 | 26341 ft | 426 kts | 81° |
| 2026-05-08 00:16 | -23.63497 | -45.89391 | 26940 ft | 429 kts | 81° |
| 2026-05-08 00:17 | -23.63031 | -45.86165 | 27492 ft | 434 kts | 82° |
| 2026-05-08 00:17 | -23.62565 | -45.82944 | 28026 ft | 438 kts | 82° |
| 2026-05-08 00:17 | -23.62088 | -45.79654 | 28569 ft | 441 kts | 82° |
| 2026-05-08 00:17 | -23.61607 | -45.76341 | 29010 ft | 446 kts | 82° |
| 2026-05-08 00:18 | -23.61115 | -45.72956 | 29008 ft | 458 kts | 82° |
| 2026-05-08 00:18 | -23.60612 | -45.69491 | 29027 ft | 468 kts | 82° |
| 2026-05-08 00:18 | -23.59567 | -45.62338 | 29041 ft | 485 kts | 82° |
| 2026-05-08 00:19 | -23.58488 | -45.54973 | 29037 ft | 497 kts | 82° |
| 2026-05-08 00:19 | -23.57382 | -45.47448 | 29035 ft | 506 kts | 82° |
| 2026-05-08 00:20 | -23.55964 | -45.39940 | 29018 ft | 510 kts | 77° |
| 2026-05-08 00:20 | -23.54287 | -45.32442 | 28998 ft | 508 kts | 77° |
| 2026-05-08 00:21 | -23.52646 | -45.24969 | 29006 ft | 507 kts | 78° |
| 2026-05-08 00:21 | -23.51050 | -45.17485 | 29021 ft | 507 kts | 78° |
| 2026-05-08 00:22 | -23.50265 | -45.13784 | 28998 ft | 492 kts | 78° |
| 2026-05-08 00:22 | -23.49510 | -45.10234 | 28987 ft | 470 kts | 78° |
| 2026-05-08 00:22 | -23.48787 | -45.06839 | 28989 ft | 449 kts | 78° |
| 2026-05-08 00:22 | -23.48094 | -45.03589 | 28990 ft | 433 kts | 78° |
| 2026-05-08 00:23 | -23.46966 | -44.98305 | 29016 ft | 431 kts | 78° |
| 2026-05-08 00:23 | -23.45344 | -44.90829 | 29021 ft | 439 kts | 77° |
| 2026-05-08 00:24 | -23.44130 | -44.85404 | 29015 ft | 440 kts | 77° |
| 2026-05-08 00:24 | -23.42703 | -44.79022 | 28713 ft | 426 kts | 77° |
| 2026-05-08 00:25 | -23.42009 | -44.75896 | 28218 ft | 423 kts | 77° |
| 2026-05-08 00:25 | -23.41316 | -44.72785 | 27595 ft | 423 kts | 77° |
| 2026-05-08 00:25 | -23.40624 | -44.69676 | 26975 ft | 422 kts | 77° |
| 2026-05-08 00:25 | -23.39939 | -44.66610 | 26313 ft | 422 kts | 77° |
| 2026-05-08 00:26 | -23.39249 | -44.63518 | 25767 ft | 419 kts | 77° |
| 2026-05-08 00:26 | -23.38562 | -44.60446 | 25214 ft | 416 kts | 77° |
| 2026-05-08 00:26 | -23.37872 | -44.57364 | 24664 ft | 412 kts | 77° |
| 2026-05-08 00:26 | -23.37205 | -44.54385 | 24134 ft | 409 kts | 77° |
| 2026-05-08 00:27 | -23.36532 | -44.51384 | 23599 ft | 405 kts | 77° |
| 2026-05-08 00:27 | -23.35868 | -44.48418 | 23073 ft | 402 kts | 76° |
| 2026-05-08 00:27 | -23.35207 | -44.45477 | 22537 ft | 397 kts | 76° |
| 2026-05-08 00:27 | -23.34546 | -44.42564 | 22022 ft | 393 kts | 75° |
| 2026-05-08 00:28 | -23.33616 | -44.39802 | 21721 ft | 383 kts | 66° |
| 2026-05-08 00:28 | -23.32509 | -44.37228 | 21262 ft | 378 kts | 64° |
| 2026-05-08 00:28 | -23.31351 | -44.34671 | 20781 ft | 374 kts | 63° |
| 2026-05-08 00:28 | -23.30205 | -44.32134 | 20267 ft | 371 kts | 63° |
| 2026-05-08 00:29 | -23.29088 | -44.29622 | 19758 ft | 368 kts | 64° |
| 2026-05-08 00:29 | -23.27991 | -44.27118 | 19255 ft | 364 kts | 64° |
| 2026-05-08 00:29 | -23.26914 | -44.24635 | 18738 ft | 361 kts | 64° |
| 2026-05-08 00:29 | -23.25853 | -44.22176 | 18232 ft | 358 kts | 64° |
| 2026-05-08 00:30 | -23.24803 | -44.19738 | 17730 ft | 354 kts | 64° |
| 2026-05-08 00:30 | -23.23765 | -44.17326 | 17223 ft | 350 kts | 64° |
| 2026-05-08 00:30 | -23.22736 | -44.14936 | 16737 ft | 347 kts | 64° |
| 2026-05-08 00:30 | -23.21718 | -44.12574 | 16237 ft | 343 kts | 64° |
| 2026-05-08 00:31 | -23.20713 | -44.10245 | 15759 ft | 339 kts | 63° |
| 2026-05-08 00:31 | -23.19712 | -44.07933 | 15252 ft | 336 kts | 63° |
| 2026-05-08 00:31 | -23.18691 | -44.05679 | 14888 ft | 329 kts | 62° |
| 2026-05-08 00:31 | -23.17666 | -44.03465 | 14416 ft | 326 kts | 61° |
| 2026-05-08 00:32 | -23.16651 | -44.01274 | 13938 ft | 323 kts | 61° |
| 2026-05-08 00:32 | -23.15649 | -43.99096 | 13433 ft | 321 kts | 62° |
| 2026-05-08 00:32 | -23.14709 | -43.96942 | 12970 ft | 319 kts | 63° |
| 2026-05-08 00:32 | -23.13782 | -43.94769 | 12495 ft | 316 kts | 63° |
| 2026-05-08 00:33 | -23.12865 | -43.92607 | 12021 ft | 313 kts | 63° |
| 2026-05-08 00:33 | -23.11954 | -43.90460 | 11526 ft | 312 kts | 62° |
| 2026-05-08 00:33 | -23.11047 | -43.88329 | 11055 ft | 310 kts | 62° |
| 2026-05-08 00:33 | -23.10144 | -43.86211 | 10567 ft | 307 kts | 62° |
| 2026-05-08 00:34 | -23.09249 | -43.84119 | 10267 ft | 300 kts | 62° |
| 2026-05-08 00:34 | -23.08389 | -43.82102 | 10130 ft | 291 kts | 62° |
| 2026-05-08 00:34 | -23.07537 | -43.80112 | 9982 ft | 290 kts | 62° |
| 2026-05-08 00:34 | -23.06672 | -43.78100 | 9571 ft | 295 kts | 62° |
| 2026-05-08 00:35 | -23.05808 | -43.76088 | 9185 ft | 292 kts | 62° |
| 2026-05-08 00:35 | -23.04956 | -43.74099 | 8784 ft | 289 kts | 62° |
| 2026-05-08 00:35 | -23.04125 | -43.72164 | 8513 ft | 282 kts | 61° |
| 2026-05-08 00:35 | -23.03298 | -43.70243 | 8300 ft | 279 kts | 62° |
| 2026-05-08 00:36 | -23.02473 | -43.68337 | 8083 ft | 279 kts | 61° |
| 2026-05-08 00:36 | -23.01634 | -43.66425 | 7856 ft | 281 kts | 61° |
| 2026-05-08 00:36 | -23.00790 | -43.64506 | 7660 ft | 282 kts | 61° |
| 2026-05-08 00:36 | -22.99946 | -43.62586 | 7482 ft | 282 kts | 61° |
| 2026-05-08 00:37 | -22.99101 | -43.60657 | 7279 ft | 283 kts | 61° |
| 2026-05-08 00:37 | -22.98260 | -43.58742 | 7089 ft | 278 kts | 60° |
| 2026-05-08 00:37 | -22.97431 | -43.56853 | 7041 ft | 277 kts | 61° |
| 2026-05-08 00:38 | -22.95771 | -43.53079 | 7023 ft | 276 kts | 61° |
| 2026-05-08 00:38 | -22.94942 | -43.51196 | 7020 ft | 275 kts | 60° |
| 2026-05-08 00:38 | -22.94134 | -43.49309 | 6917 ft | 277 kts | 60° |
| 2026-05-08 00:38 | -22.93348 | -43.47444 | 6657 ft | 273 kts | 62° |
| 2026-05-08 00:39 | -22.92564 | -43.45588 | 6318 ft | 273 kts | 62° |
| 2026-05-08 00:39 | -22.91777 | -43.43732 | 6083 ft | 266 kts | 61° |
| 2026-05-08 00:39 | -22.91009 | -43.41920 | 5753 ft | 263 kts | 62° |
| 2026-05-08 00:39 | -22.90254 | -43.40134 | 5450 ft | 256 kts | 62° |
| 2026-05-08 00:40 | -22.89527 | -43.38423 | 5109 ft | 244 kts | 62° |
| 2026-05-08 00:40 | -22.88837 | -43.36784 | 4821 ft | 233 kts | 62° |
| 2026-05-08 00:40 | -22.88344 | -43.35146 | 4453 ft | 230 kts | 81° |
| 2026-05-08 00:40 | -22.88400 | -43.33441 | 4161 ft | 222 kts | 91° |
| 2026-05-08 00:41 | -22.88562 | -43.31826 | 4029 ft | 207 kts | 91° |
| 2026-05-08 00:41 | -22.88713 | -43.30349 | 3995 ft | 185 kts | 91° |
| 2026-05-08 00:41 | -22.88847 | -43.29053 | 3874 ft | 165 kts | 90° |
| 2026-05-08 00:41 | -22.88990 | -43.27839 | 3488 ft | 162 kts | 93° |
| 2026-05-08 00:42 | -22.89180 | -43.26646 | 3151 ft | 158 kts | 97° |
| 2026-05-08 00:42 | -22.89559 | -43.25537 | 2840 ft | 157 kts | 111° |
| 2026-05-08 00:42 | -22.90117 | -43.24537 | 2568 ft | 153 kts | 113° |
| 2026-05-08 00:42 | -22.90588 | -43.23527 | 2338 ft | 148 kts | 111° |
| 2026-05-08 00:43 | -22.91017 | -43.22533 | 2206 ft | 142 kts | 111° |
| 2026-05-08 00:43 | -22.91419 | -43.21633 | 2132 ft | 127 kts | 111° |
| 2026-05-08 00:43 | -22.91813 | -43.20734 | 1958 ft | 135 kts | 110° |
| 2026-05-08 00:43 | -22.92223 | -43.19786 | 1799 ft | 141 kts | 115° |
| 2026-05-08 00:44 | -22.92875 | -43.18982 | 1511 ft | 142 kts | 142° |
| 2026-05-08 00:44 | -22.93698 | -43.18426 | 1157 ft | 136 kts | 148° |
| 2026-05-08 00:44 | -22.94471 | -43.17876 | 825 ft | 129 kts | 138° |
| 2026-05-08 00:44 | -22.94725 | -43.17016 | 623 ft | 129 kts | 69° |
| 2026-05-08 00:45 | -22.94030 | -43.16421 | 490 ft | 137 kts | 17° |
| 2026-05-08 00:45 | -22.93103 | -43.16235 | 381 ft | 131 kts | 4° |
| 2026-05-08 00:45 | -22.92215 | -43.16215 | 176 ft | 126 kts | 356° |
| 2026-05-08 00:45 | -22.91356 | -43.16267 | 22 ft | 116 kts | 356° |
| 2026-05-08 00:46 | -22.90879 | -43.16294 | 23 ft | 32 kts | 356° |
| 2026-05-08 00:46 | -22.90807 | -43.16333 | 26 ft | 9 kts | 276° |
| 2026-05-08 00:46 | -22.90809 | -43.16402 | 27 ft | 9 kts | 268° |
| 2026-05-08 00:46 | -22.90813 | -43.16477 | 22 ft | 10 kts | 266° |
| 2026-05-08 00:47 | -22.90828 | -43.16546 | 23 ft | 10 kts | 214° |
| 2026-05-08 00:47 | -22.90894 | -43.16547 | 23 ft | 10 kts | 175° |
| 2026-05-08 00:47 | -22.90960 | -43.16542 | 21 ft | 9 kts | 176° |
| 2026-05-08 00:47 | -22.91024 | -43.16538 | 21 ft | 9 kts | 176° |
| 2026-05-08 00:48 | -22.91083 | -43.16531 | 21 ft | 8 kts | 171° |
| 2026-05-08 00:48 | -22.91133 | -43.16520 | 21 ft | 7 kts | 170° |
| 2026-05-08 00:48 | -22.91166 | -43.16543 | 22 ft | 7 kts | 261° |
| 2026-05-08 00:48 | -22.91169 | -43.16581 | 21 ft | 1 kts | 267° |
| 2026-05-08 00:49 | -22.91169 | -43.16585 | 21 ft | 0 kts | 267° |